createdAt,value
2023-01-13T00:14:22.734Z,8.1
2023-01-13T00:16:24.764Z,8.1
2023-01-13T00:18:26.733Z,8
2023-01-13T00:20:31.761Z,8
2023-01-13T00:22:33.766Z,8
2023-01-13T00:24:35.755Z,8
2023-01-13T00:26:37.702Z,7.9
2023-01-13T00:28:39.736Z,7.9
2023-01-13T00:30:41.678Z,7.9
2023-01-13T00:32:43.667Z,7.8
2023-01-13T00:34:48.763Z,7.8
2023-01-13T00:36:50.734Z,7.7
2023-01-13T00:38:52.714Z,7.7
2023-01-13T00:41:15.539Z,7.6
2023-01-13T00:43:17.502Z,7.5
2023-01-13T00:45:19.487Z,7.6
2023-01-13T00:47:24.496Z,7.5
2023-01-13T00:49:26.501Z,7.4
2023-01-13T00:51:28.501Z,7.4
2023-01-13T00:53:30.465Z,7.4
2023-01-13T00:55:32.477Z,7.4
2023-01-13T00:57:34.433Z,7.3
2023-01-13T00:59:36.422Z,7.3
2023-01-13T01:01:41.677Z,7.2
2023-01-13T01:03:43.482Z,7.3
2023-01-13T01:05:45.460Z,7.3
2023-01-13T01:07:47.444Z,7.3
2023-01-13T01:09:49.418Z,7.4
2023-01-13T01:11:51.419Z,7.3
2023-01-13T01:13:53.383Z,7.3
2023-01-13T01:20:02.351Z,7.3
2023-01-13T01:22:04.346Z,7.4
2023-01-13T01:26:08.362Z,7.4
2023-01-13T01:30:15.350Z,7.5
2023-01-13T01:32:17.349Z,7.5
2023-01-13T01:35:21.809Z,7.6
2023-01-13T01:37:23.785Z,7.6
2023-01-13T01:39:25.752Z,7.6
2023-01-13T01:43:32.789Z,7.6
2023-01-13T01:45:34.789Z,7.6
2023-01-13T01:47:36.775Z,7.6
2023-01-13T01:53:42.694Z,7.5
2023-01-13T01:55:44.660Z,7.5
2023-01-13T01:59:51.701Z,7.5
2023-01-13T02:01:53.888Z,7.5
2023-01-13T02:03:55.662Z,7.4
2023-01-13T02:05:57.587Z,7.5
2023-01-13T02:07:59.603Z,7.5
2023-01-13T02:10:01.609Z,7.5
2023-01-13T02:12:06.627Z,7.5
2023-01-13T02:18:12.503Z,7.5
2023-01-13T02:26:23.542Z,7.3
2023-01-13T02:31:30.014Z,7.4
2023-01-13T02:33:31.980Z,7.3
2023-01-13T02:35:33.943Z,7.3
2023-01-13T02:37:35.925Z,7.3
2023-01-13T02:39:41.016Z,7.3
2023-01-13T02:41:42.909Z,7.3
2023-01-13T02:43:44.939Z,7.3
2023-01-13T02:45:46.922Z,7.3
2023-01-13T02:47:48.849Z,7.2
2023-01-13T02:49:50.814Z,7.3
2023-01-13T02:51:52.792Z,7.2
2023-01-13T02:53:57.832Z,7.2
2023-01-13T02:55:59.854Z,7.2
2023-01-13T02:58:01.800Z,7.2
2023-01-13T03:00:03.785Z,7.2
2023-01-13T03:02:05.889Z,7.3
2023-01-13T03:04:07.729Z,7.3
2023-01-13T03:06:09.715Z,7.3
2023-01-13T03:08:14.746Z,7.3
2023-01-13T03:10:16.737Z,7.3
2023-01-13T03:12:18.693Z,7.3
2023-01-13T03:14:20.727Z,7.3
2023-01-13T03:16:22.771Z,7.2
2023-01-13T03:18:24.684Z,7.3
2023-01-13T03:20:26.664Z,7.3
2023-01-13T03:22:31.708Z,7.3
2023-01-13T03:24:33.669Z,7.2
2023-01-13T03:26:35.660Z,7.2
2023-01-13T03:27:38.183Z,7.2
2023-01-13T03:29:40.159Z,7.2
2023-01-13T03:31:42.145Z,7.2
2023-01-13T03:33:44.127Z,7.2
2023-01-13T03:35:49.151Z,7.3
2023-01-13T03:39:53.133Z,7.3
2023-01-13T03:43:57.083Z,7.3
2023-01-13T03:45:59.107Z,7.3
2023-01-13T03:48:01.050Z,7.4
2023-01-13T03:50:06.091Z,7.4
2023-01-13T03:52:08.060Z,7.4
2023-01-13T03:54:10.064Z,7.4
2023-01-13T03:56:12.016Z,7.3
2023-01-13T04:04:24.495Z,7.4
2023-01-13T04:12:32.383Z,7.8
2023-01-13T04:14:34.372Z,7.9
2023-01-13T04:16:37.668Z,8
2023-01-13T04:18:41.387Z,8.3
2023-01-13T04:20:43.456Z,8.2
2023-01-13T04:22:45.359Z,8.2
2023-01-13T04:25:02.067Z,8.1
2023-01-13T04:27:04.012Z,8.1
2023-01-13T04:29:05.988Z,8.1
2023-01-13T04:31:11.145Z,8
2023-01-13T04:33:12.982Z,8
2023-01-13T04:35:14.985Z,8.1
2023-01-13T04:37:16.959Z,8.1
2023-01-13T04:39:18.946Z,8.2
2023-01-13T04:41:20.908Z,8.1
2023-01-13T04:43:22.895Z,8.2
2023-01-13T04:45:27.943Z,8.1
2023-01-13T04:47:29.917Z,8.1
2023-01-13T04:49:31.916Z,8
2023-01-13T04:51:33.855Z,8.1
2023-01-13T04:53:35.847Z,8.1
2023-01-13T04:55:37.841Z,8.1
2023-01-13T04:57:39.848Z,8.2
2023-01-13T04:59:44.839Z,8.1
2023-01-13T05:01:46.967Z,8
2023-01-13T05:03:48.816Z,7.9
2023-01-13T05:05:50.807Z,8.1
2023-01-13T05:07:52.797Z,8
2023-01-13T05:09:54.772Z,8.1
2023-01-13T05:11:56.735Z,8
2023-01-13T05:14:01.769Z,7.9
2023-01-13T05:16:06.396Z,8
2023-01-13T05:18:05.744Z,7.9
2023-01-13T05:19:08.263Z,7.9
2023-01-13T05:21:10.240Z,7.9
2023-01-13T05:23:12.235Z,7.8
2023-01-13T05:25:14.223Z,7.8
2023-01-13T05:27:19.261Z,7.8
2023-01-13T05:29:21.233Z,7.9
2023-01-13T05:31:23.316Z,8
2023-01-13T05:33:25.176Z,7.8
2023-01-13T05:35:27.194Z,7.8
2023-01-13T05:37:29.150Z,7.8
2023-01-13T05:39:31.149Z,7.8
2023-01-13T05:41:36.141Z,7.7
2023-01-13T05:43:38.121Z,7.7
2023-01-13T05:45:40.110Z,7.7
2023-01-13T05:47:42.091Z,7.7
2023-01-13T05:49:44.101Z,7.7
2023-01-13T05:53:48.023Z,7.7
2023-01-13T05:55:53.059Z,7.7
2023-01-13T05:57:55.040Z,7.7
2023-01-13T05:59:57.004Z,7.9
2023-01-13T06:01:59.001Z,7.9
2023-01-13T06:04:00.950Z,7.9
2023-01-13T06:08:04.939Z,8.1
2023-01-13T06:14:13.896Z,8
2023-01-13T06:15:16.423Z,8
2023-01-13T06:23:27.391Z,7.9
2023-01-13T06:25:29.354Z,7.9
2023-01-13T06:31:35.341Z,7.8
2023-01-13T06:33:37.261Z,7.8
2023-01-13T06:37:44.285Z,7.9
2023-01-13T06:39:46.251Z,8
2023-01-13T06:41:48.210Z,8
2023-01-13T06:43:50.192Z,8
2023-01-13T06:45:52.191Z,8
2023-01-13T06:47:54.149Z,8
2023-01-13T06:49:56.119Z,7.9
2023-01-13T06:54:03.177Z,8
2023-01-13T06:56:05.146Z,8
2023-01-13T06:58:07.134Z,8
2023-01-13T07:00:09.078Z,7.9
2023-01-13T07:06:18.104Z,8
2023-01-13T07:08:20.082Z,8
2023-01-13T07:10:22.042Z,8
2023-01-13T07:11:24.571Z,8
2023-01-13T07:13:26.526Z,8
2023-01-13T07:15:28.525Z,8
2023-01-13T07:17:30.483Z,8
2023-01-13T07:19:35.523Z,8.1
2023-01-13T07:21:37.534Z,8
2023-01-13T07:23:39.523Z,8.1
2023-01-13T07:25:41.497Z,8.1
2023-01-13T07:29:45.433Z,8.1
2023-01-13T07:37:56.434Z,8.1
2023-01-13T07:39:58.402Z,8.1
2023-01-13T07:44:02.430Z,8.1
2023-01-13T07:46:04.444Z,8.1
2023-01-13T07:48:09.403Z,8.2
2023-01-13T07:50:11.385Z,8.2
2023-01-13T07:52:13.352Z,8.2
2023-01-13T07:54:15.353Z,8.2
2023-01-13T07:56:17.332Z,8.2
2023-01-13T07:58:19.282Z,8.2
2023-01-13T08:00:21.302Z,8.2
2023-01-13T08:02:26.471Z,8.1
2023-01-13T08:04:28.294Z,8.1
2023-01-13T08:06:30.265Z,8.1
2023-01-13T08:08:53.157Z,8.2
2023-01-13T08:10:55.134Z,8.2
2023-01-13T08:12:57.340Z,8.1
2023-01-13T08:15:02.135Z,8
2023-01-13T08:17:04.144Z,8
2023-01-13T08:19:06.115Z,8
2023-01-13T08:21:08.110Z,8
2023-01-13T08:23:10.091Z,8
2023-01-13T08:25:12.384Z,8
2023-01-13T08:27:14.021Z,8
2023-01-13T08:29:19.094Z,8
2023-01-13T08:31:21.158Z,8.1
2023-01-13T08:33:23.045Z,8.1
2023-01-13T08:39:28.960Z,8.3
2023-01-13T08:41:30.914Z,8.3
2023-01-13T08:43:35.932Z,8.3
2023-01-13T08:55:47.778Z,8.3
2023-01-13T08:59:54.840Z,8.1
2023-01-13T09:01:56.941Z,8.1
2023-01-13T09:02:59.308Z,8
2023-01-13T09:05:01.279Z,8
2023-01-13T09:07:03.256Z,8.1
2023-01-13T09:09:05.239Z,8
2023-01-13T09:11:10.274Z,8
2023-01-13T09:13:12.231Z,8
2023-01-13T09:15:14.208Z,8
2023-01-13T09:17:16.230Z,7.9
2023-01-13T09:19:18.240Z,7.8
2023-01-13T09:21:20.162Z,7.7
2023-01-13T09:23:22.145Z,7.6
2023-01-13T09:25:27.161Z,7.5
2023-01-13T09:27:29.118Z,7.4
2023-01-13T09:29:31.111Z,7.3
2023-01-13T09:31:33.142Z,7.2
2023-01-13T09:33:35.039Z,7.2
2023-01-13T09:35:37.014Z,7.3
2023-01-13T09:37:39.012Z,7.3
2023-01-13T09:39:44.039Z,7.2
2023-01-13T09:47:51.920Z,7.3
2023-01-13T09:49:53.869Z,7.3
2023-01-13T09:54:02.361Z,7.4
2023-01-13T09:56:04.341Z,7.4
2023-01-13T09:59:08.815Z,7.4
2023-01-13T10:01:10.841Z,7.4
2023-01-13T10:03:12.837Z,7.4
2023-01-13T10:05:14.735Z,7.4
2023-01-13T10:07:21.040Z,7.4
2023-01-13T10:09:21.741Z,7.4
2023-01-13T10:11:23.704Z,7.4
2023-01-13T10:13:25.681Z,7.4
2023-01-13T10:15:27.651Z,7.4
2023-01-13T10:17:29.641Z,7.4
2023-01-13T10:19:31.594Z,7.4
2023-01-13T10:21:36.608Z,7.2
2023-01-13T10:23:38.576Z,7.3
2023-01-13T10:25:40.549Z,7.4
2023-01-13T10:27:42.532Z,7.4
2023-01-13T10:29:44.509Z,7.5
2023-01-13T10:31:46.455Z,7.5
2023-01-13T10:33:48.442Z,7.4
2023-01-13T10:35:53.478Z,7.4
2023-01-13T10:37:55.422Z,7.3
2023-01-13T10:41:59.386Z,7.2
2023-01-13T10:44:01.358Z,7.1
2023-01-13T10:46:03.299Z,7.1
2023-01-13T10:50:10.282Z,6.9
2023-01-13T10:54:14.276Z,6.9
2023-01-13T10:55:16.749Z,6.9
2023-01-13T10:57:18.728Z,6.9
2023-01-13T10:59:20.703Z,7
2023-01-13T11:01:22.766Z,6.9
2023-01-13T11:03:27.664Z,7
2023-01-13T11:05:30.398Z,7
2023-01-13T11:07:31.591Z,7.1
2023-01-13T11:09:33.577Z,7.3
2023-01-13T11:11:35.553Z,7.5
2023-01-13T11:13:37.487Z,7.5
2023-01-13T11:15:39.448Z,7.5
2023-01-13T11:17:44.489Z,7.4
2023-01-13T11:19:46.456Z,7.3
2023-01-13T11:21:48.403Z,7.3
2023-01-13T11:23:50.373Z,7.4
2023-01-13T11:25:52.334Z,7.4
2023-01-13T11:27:54.343Z,7.3
2023-01-13T11:29:56.274Z,7.4
2023-01-13T11:32:01.306Z,7.5
2023-01-13T11:34:03.246Z,7.5
2023-01-13T11:36:05.236Z,7.5
2023-01-13T11:38:07.211Z,7.4
2023-01-13T11:40:09.152Z,7.4
2023-01-13T11:42:11.110Z,7.5
2023-01-13T11:44:13.110Z,7.6
2023-01-13T11:46:18.148Z,7.6
2023-01-13T11:48:20.079Z,7.6
2023-01-13T11:50:22.056Z,7.8
2023-01-13T11:52:39.126Z,7.9
2023-01-13T11:54:41.182Z,7.9
2023-01-13T11:56:43.141Z,8
2023-01-13T11:58:51.224Z,8.1
2023-01-13T12:00:50.173Z,8.1
2023-01-13T12:02:52.241Z,8.1
2023-01-13T12:04:54.124Z,8.1
2023-01-13T12:06:56.097Z,8.1
2023-01-13T12:08:58.048Z,8.2
2023-01-13T12:11:00.058Z,8.2
2023-01-13T12:13:05.092Z,8.2
2023-01-13T12:15:07.048Z,8.2
2023-01-13T12:17:09.028Z,8.2
2023-01-13T12:19:10.997Z,8.2
2023-01-13T12:21:12.994Z,8.2
2023-01-13T12:23:14.977Z,8.3
2023-01-13T12:25:16.965Z,8.3
2023-01-13T12:27:22.000Z,8.4
2023-01-13T12:29:23.955Z,8.4
2023-01-13T12:31:26.022Z,8.4
2023-01-13T12:39:33.862Z,8.5
2023-01-13T12:45:42.890Z,8.5
2023-01-13T12:46:45.370Z,8.6
2023-01-13T12:48:47.377Z,8.6
2023-01-13T12:50:49.354Z,8.6
2023-01-13T12:56:58.341Z,8.7
2023-01-13T12:59:00.324Z,8.7
2023-01-13T13:03:04.336Z,8.8
2023-01-13T13:05:06.263Z,8.9
2023-01-13T13:07:08.255Z,8.9
2023-01-13T13:09:13.288Z,8.9
2023-01-13T13:11:15.288Z,8.9
2023-01-13T13:13:17.276Z,8.9
2023-01-13T13:15:19.398Z,8.9
2023-01-13T13:19:23.209Z,9
2023-01-13T13:21:25.218Z,9
2023-01-13T13:23:30.276Z,9
2023-01-13T13:25:32.238Z,9.1
2023-01-13T13:27:34.224Z,9.1
2023-01-13T13:29:36.224Z,9.2
2023-01-13T13:31:38.191Z,9.2
2023-01-13T13:33:40.226Z,9.2
2023-01-13T13:37:47.224Z,9.2
2023-01-13T13:39:49.187Z,9.2
2023-01-13T13:42:53.711Z,9.2
2023-01-13T13:44:55.696Z,9.3
2023-01-13T13:46:57.671Z,9.3
2023-01-13T13:48:59.644Z,9.4
2023-01-13T13:51:04.735Z,9.3
2023-01-13T13:53:06.711Z,9.3
2023-01-13T13:55:08.669Z,9.4
2023-01-13T13:57:10.673Z,9.3
2023-01-13T13:59:12.671Z,9.4
2023-01-13T14:01:14.707Z,9.4
2023-01-13T14:03:16.624Z,9.4
2023-01-13T14:05:21.656Z,9.4
2023-01-13T14:07:23.658Z,9.4
2023-01-13T14:09:25.609Z,9.4
2023-01-13T14:11:27.609Z,9.4
2023-01-13T14:13:29.570Z,9.4
2023-01-13T14:15:31.677Z,9.4
2023-01-13T14:17:33.561Z,9.5
2023-01-13T14:19:38.596Z,9.4
2023-01-13T14:21:40.572Z,9.4
2023-01-13T14:25:44.542Z,9.4
2023-01-13T14:33:56.419Z,9.3
2023-01-13T14:35:58.427Z,9.3
2023-01-13T14:38:00.384Z,9.3
2023-01-13T14:39:02.932Z,9.3
2023-01-13T14:41:04.915Z,9.3
2023-01-13T14:43:06.897Z,9.3
2023-01-13T14:45:08.875Z,9.3
2023-01-13T14:47:13.917Z,9.3
2023-01-13T14:49:15.902Z,9.3
2023-01-13T14:51:17.884Z,9.3
2023-01-13T14:53:19.879Z,9.3
2023-01-13T14:55:21.859Z,9.3
2023-01-13T14:57:23.871Z,9.3
2023-01-13T14:59:25.861Z,9.3
2023-01-13T15:01:31.023Z,9.2
2023-01-13T15:03:32.882Z,9.3
2023-01-13T15:05:34.914Z,9.3
2023-01-13T15:07:36.886Z,9.3
2023-01-13T15:09:38.859Z,9.2
2023-01-13T15:11:40.891Z,9.3
2023-01-13T15:13:47.647Z,9.2
2023-01-13T15:15:47.939Z,9.2
2023-01-13T15:17:49.916Z,9.1
2023-01-13T15:19:51.892Z,9.2
2023-01-13T15:21:53.880Z,9.1
2023-01-13T15:23:55.896Z,9
2023-01-13T15:25:57.866Z,9
2023-01-13T15:27:59.863Z,9
2023-01-13T15:30:04.903Z,8.9
2023-01-13T15:32:06.887Z,8.9
2023-01-13T15:34:08.867Z,8.9
2023-01-13T15:36:31.495Z,8.8
2023-01-13T15:38:33.509Z,8.8
2023-01-13T15:40:35.480Z,8.8
2023-01-13T15:42:42.088Z,8.7
2023-01-13T15:44:43.996Z,8.7
2023-01-13T15:46:46.045Z,8.7
2023-01-13T15:48:51.185Z,8.7
2023-01-13T15:50:50.005Z,8.8
2023-01-13T15:52:51.948Z,8.9
2023-01-13T15:54:53.963Z,8.9
2023-01-13T15:56:58.989Z,8.9
2023-01-13T15:59:00.981Z,8.9
2023-01-13T16:01:03.156Z,8.9
2023-01-13T16:03:04.971Z,9
2023-01-13T16:05:06.932Z,8.9
2023-01-13T16:07:08.895Z,8.9
2023-01-13T16:09:10.894Z,9
2023-01-13T16:11:15.941Z,9
2023-01-13T16:13:17.935Z,9
2023-01-13T16:19:23.883Z,9
2023-01-13T16:21:25.863Z,8.9
2023-01-13T16:23:27.846Z,8.9
2023-01-13T16:25:32.935Z,8.9
2023-01-13T16:27:34.887Z,8.9
2023-01-13T16:29:36.890Z,8.8
2023-01-13T16:30:39.411Z,8.9
2023-01-13T16:32:41.423Z,8.9
2023-01-13T16:34:43.404Z,8.9
2023-01-13T16:36:45.399Z,8.9
2023-01-13T16:38:50.446Z,8.9
2023-01-13T16:40:52.447Z,8.9
2023-01-13T16:42:54.444Z,8.9
2023-01-13T16:44:56.451Z,8.8
2023-01-13T16:46:58.432Z,8.8
2023-01-13T16:53:07.458Z,8.8
2023-01-13T16:59:13.430Z,8.7
2023-01-13T17:01:15.540Z,8.7
2023-01-13T17:03:17.492Z,8.7
2023-01-13T17:05:19.378Z,8.7
2023-01-13T17:09:26.415Z,8.7
2023-01-13T17:11:28.393Z,8.7
2023-01-13T17:19:36.351Z,8.6
2023-01-13T17:21:41.380Z,8.6
2023-01-13T17:23:43.381Z,8.6
2023-01-13T17:25:45.362Z,8.5
2023-01-13T17:26:47.887Z,8.6
2023-01-13T17:28:49.851Z,8.6
2023-01-13T17:30:51.824Z,8.6
2023-01-13T17:32:53.850Z,8.6
2023-01-13T17:34:58.857Z,8.4
2023-01-13T17:37:00.849Z,8.3
2023-01-13T17:39:02.861Z,8.3
2023-01-13T17:41:04.839Z,8.3
2023-01-13T17:43:06.808Z,8.3
2023-01-13T17:45:08.796Z,8.2
2023-01-13T17:47:10.794Z,8.2
2023-01-13T17:49:15.831Z,8
2023-01-13T17:51:17.808Z,8
2023-01-13T17:53:19.782Z,7.9
2023-01-13T17:57:23.771Z,7.8
2023-01-13T17:59:25.753Z,7.7
2023-01-13T18:01:27.823Z,7.8
2023-01-13T18:05:34.756Z,7.8
2023-01-13T18:07:36.746Z,7.7
2023-01-13T18:09:39.049Z,7.8
2023-01-13T18:11:40.728Z,7.8
2023-01-13T18:13:42.701Z,7.8
2023-01-13T18:15:44.681Z,7.8
2023-01-13T18:17:49.727Z,7.8
2023-01-13T18:19:51.732Z,7.8
2023-01-13T18:22:56.215Z,7.8
2023-01-13T18:24:58.201Z,7.8
2023-01-13T18:27:00.177Z,7.7
2023-01-13T18:29:02.139Z,7.7
2023-01-13T18:31:07.237Z,7.8
2023-01-13T18:33:09.167Z,7.8
2023-01-13T18:35:11.129Z,7.8
2023-01-13T18:37:13.114Z,7.8
2023-01-13T18:39:15.078Z,7.8
2023-01-13T18:41:17.080Z,7.8
2023-01-13T18:43:19.051Z,7.7
2023-01-13T18:45:24.109Z,7.6
2023-01-13T18:47:26.099Z,7.6
2023-01-13T18:49:28.071Z,7.6
2023-01-13T18:51:30.044Z,7.7
2023-01-13T18:53:32.023Z,7.6
2023-01-13T18:55:33.991Z,7.5
2023-01-13T18:57:36.027Z,7.5
2023-01-13T18:59:41.035Z,7.5
2023-01-13T19:01:43.040Z,7.5
2023-01-13T19:03:44.932Z,7.5
2023-01-13T19:05:46.903Z,7.4
2023-01-13T19:07:48.872Z,7.3
2023-01-13T19:09:50.846Z,7.3
2023-01-13T19:11:52.819Z,7.3
2023-01-13T19:13:57.857Z,7.3
2023-01-13T19:15:59.857Z,7.2
2023-01-13T19:18:01.779Z,7.2
2023-01-13T19:20:24.369Z,7.2
2023-01-13T19:22:26.369Z,7.2
2023-01-13T19:24:28.338Z,7.1
2023-01-13T19:26:33.375Z,7.2
2023-01-13T19:28:35.335Z,7.2
2023-01-13T19:30:37.303Z,7.2
2023-01-13T19:32:39.247Z,7.1
2023-01-13T19:34:41.231Z,7.1
2023-01-13T19:36:43.221Z,7
2023-01-13T19:38:45.199Z,7
2023-01-13T19:40:50.196Z,7.1
2023-01-13T19:44:54.124Z,7.2
2023-01-13T19:48:58.058Z,7.1
2023-01-13T19:51:00.042Z,7.1
2023-01-13T19:53:01.994Z,7
2023-01-13T19:55:07.021Z,6.9
2023-01-13T20:01:13.003Z,6.9
2023-01-13T20:03:14.896Z,7
2023-01-13T20:05:16.865Z,7.1
2023-01-13T20:07:18.844Z,7.2
2023-01-13T20:09:23.911Z,7.2
2023-01-13T20:11:25.809Z,7.3
2023-01-13T20:13:27.768Z,7.2
2023-01-13T20:18:34.239Z,7.3
2023-01-13T20:20:36.208Z,7.3
2023-01-13T20:26:45.162Z,7.4
2023-01-13T20:28:47.137Z,7.4
2023-01-13T20:30:49.118Z,7.4
2023-01-13T20:32:51.068Z,7.4
2023-01-13T20:34:53.029Z,7.4
2023-01-13T20:39:00.034Z,7.6
2023-01-13T20:41:01.996Z,7.6
2023-01-13T20:43:03.991Z,7.6
2023-01-13T20:49:09.896Z,7.6
2023-01-13T20:51:14.946Z,7.6
2023-01-13T20:53:16.900Z,7.6
2023-01-13T20:57:20.827Z,7.5
2023-01-13T21:01:24.994Z,7.4
2023-01-13T21:03:26.752Z,7.3
2023-01-13T21:05:31.776Z,7.4
2023-01-13T21:07:33.772Z,7.4
2023-01-13T21:09:35.729Z,7.4
2023-01-13T21:10:38.241Z,7.4
2023-01-13T21:12:40.207Z,7.5
2023-01-13T21:14:42.203Z,7.4
2023-01-13T21:16:44.151Z,7.4
2023-01-13T21:18:49.169Z,7.4
2023-01-13T21:20:51.139Z,7.4
2023-01-13T21:22:53.152Z,7.4
2023-01-13T21:24:55.094Z,7.4
2023-01-13T21:28:59.026Z,7.3
2023-01-13T21:31:01.016Z,7.3
2023-01-13T21:33:06.020Z,7.3
2023-01-13T21:35:09.527Z,7.3
2023-01-13T21:37:11.446Z,7.3
2023-01-13T21:39:13.434Z,7.3
2023-01-13T21:41:15.380Z,7.4
2023-01-13T21:43:17.365Z,7.2
2023-01-13T21:45:19.357Z,7.4
2023-01-13T21:47:24.404Z,7.4
2023-01-13T21:51:28.307Z,7.4
2023-01-13T21:53:30.294Z,7.4
2023-01-13T21:55:32.262Z,7.4
2023-01-13T21:57:34.219Z,7.4
2023-01-13T21:59:36.196Z,7.4
2023-01-13T22:01:45.941Z,7.2
2023-01-13T22:03:43.178Z,7.3
2023-01-13T22:05:45.147Z,7.4
2023-01-13T22:06:47.652Z,7.4
2023-01-13T22:08:49.633Z,7.4
2023-01-13T22:10:51.603Z,7.3
2023-01-13T22:12:53.573Z,7.3
2023-01-13T22:17:00.578Z,7.2
2023-01-13T22:19:02.560Z,7.3
2023-01-13T22:21:04.533Z,7.4
2023-01-13T22:23:06.486Z,7.4
2023-01-13T22:25:08.457Z,7.3
2023-01-13T22:27:10.430Z,7.5
2023-01-13T22:29:15.512Z,7.5
2023-01-13T22:31:17.495Z,7.5
2023-01-13T22:33:19.386Z,7.5
2023-01-13T22:35:21.363Z,7.5
2023-01-13T22:37:23.334Z,7.6
2023-01-13T22:39:25.300Z,7.6
2023-01-13T22:41:27.250Z,7.6
2023-01-13T22:43:32.312Z,7.6
2023-01-13T22:51:40.193Z,7.6
2023-01-13T22:55:44.441Z,7.7
2023-01-13T22:57:49.154Z,7.7
2023-01-13T22:59:51.166Z,7.7
2023-01-13T23:01:53.144Z,7.6
2023-01-13T23:08:19.947Z,7.6
2023-01-13T23:10:24.995Z,7.6
2023-01-13T23:16:30.985Z,7.5
2023-01-13T23:18:33.897Z,7.5
2023-01-13T23:20:34.878Z,7.5
2023-01-13T23:24:41.885Z,7.3
2023-01-13T23:26:43.841Z,7.3
2023-01-13T23:28:45.830Z,7.3
2023-01-13T23:30:47.816Z,7.4
2023-01-13T23:32:49.776Z,7.4
2023-01-13T23:34:51.752Z,7.4
2023-01-13T23:36:53.719Z,7.3
2023-01-13T23:38:58.766Z,7.2
2023-01-13T23:41:00.718Z,7.2
2023-01-13T23:43:02.691Z,7.1
2023-01-13T23:45:04.649Z,7.1
2023-01-13T23:47:06.683Z,7.1
2023-01-13T23:49:08.591Z,7.1
2023-01-13T23:51:10.541Z,7.2
2023-01-13T23:53:15.557Z,7.2
2023-01-13T23:55:17.555Z,7.2
2023-01-13T23:57:19.529Z,7.1
2023-01-13T23:58:22.017Z,7.1
